Date,TemperatureHighF,TemperatureAvgF,TemperatureLowF,DewpointHighF,DewpointAvgF,DewpointLowF,HumidityHigh,HumidityAvg,HumidityLow,PressureMaxIn,PressureMinIn,WindSpeedMaxMPH,WindSpeedAvgMPH,GustSpeedMaxMPH,PrecipitationSumIn
2013-1-1,75.0,65.1,54.2,68.4,62.2,51.9,97,91,74,30.08,29.90,15,1,17,0.10
2013-1-2,54.2,49.1,42.8,52.2,45.8,41.1,94,88,81,30.17,29.98,14,2,14,0.05
2013-1-3,47.8,41.0,36.4,41.0,35.5,28.4,95,82,60,30.35,30.16,12,2,13,0.30
2013-1-4,58.4,44.6,34.4,35.6,30.9,27.7,78,61,36,30.42,30.29,12,1,13,0.00
2013-1-5,51.6,47.0,41.8,39.0,35.0,31.1,68,63,53,30.35,30.22,7,0,7,0.00
2013-1-6,50.0,46.6,41.8,47.2,42.9,38.7,94,87,67,30.27,30.17,10,1,10,0.10
2013-1-7,64.1,49.0,37.6,41.4,39.0,35.7,93,71,39,30.31,30.17,9,0,10,0.00
2013-1-8,67.0,56.4,46.9,59.7,50.2,40.4,89,80,74,30.23,30.11,6,0,7,0.00
2013-1-9,66.7,66.4,66.1,65.8,65.5,65.2,97,97,97,30.22,30.20,6,1,6,0.00
2013-1-10,72.7,66.7,62.0,69.0,65.1,60.2,97,95,88,30.21,29.97,16,2,17,0.33
2013-1-11,79.0,69.8,62.5,69.8,66.3,60.8,97,89,69,30.12,30.03,14,1,19,0.00
2013-1-12,76.3,70.6,67.8,70.6,68.1,66.9,97,92,76,30.08,29.95,14,1,14,0.00
2013-1-13,75.6,71.6,62.4,71.0,69.1,60.8,95,92,84,30.01,29.91,16,2,16,0.03
2013-1-14,65.5,52.7,43.4,62.3,51.2,42.3,97,95,88,30.09,30.00,13,1,13,0.02
2013-1-15,65.5,54.1,43.3,63.4,53.0,42.2,98,96,92,30.05,29.91,4,0,7,0.32
2013-1-16,57.1,47.3,40.9,55.7,46.1,39.8,100,95,92,30.04,29.92,11,1,11,0.20
2013-1-17,48.2,40.4,35.3,39.8,35.8,32.6,96,84,66,30.35,30.03,18,2,21,0.02
2013-1-18,60.8,44.8,35.8,40.9,36.2,33.4,92,74,42,30.49,30.34,12,1,12,0.00
2013-1-19,66.3,49.7,37.0,47.3,40.7,33.5,93,73,50,30.38,30.22,6,0,7,0.00
2013-1-20,68.5,51.1,38.8,50.8,43.9,37.2,96,79,45,30.26,30.10,9,0,10,0.00
2013-1-21,67.8,53.3,41.3,46.9,43.3,38.9,97,72,44,30.19,30.10,11,0,15,0.00
2013-1-22,63.3,46.9,38.4,42.5,35.4,29.9,89,66,39,30.35,30.18,10,0,11,0.00
2013-1-23,68.9,51.4,35.3,52.1,43.9,33.1,94,78,51,30.39,30.27,11,0,13,0.00
2013-1-24,74.5,57.1,42.3,58.6,51.2,41.0,97,82,54,30.33,30.19,7,0,9,0.00
2013-1-25,56.8,53.2,52.0,53.6,51.2,50.1,95,93,89,30.18,30.16,0,0,0,0.00
2013-1-26,74.6,61.1,52.1,63.2,56.8,50.7,97,87,58,30.24,30.15,6,0,8,0.00
2013-1-27,72.3,60.2,49.8,62.7,56.9,48.4,97,89,71,30.29,30.21,7,1,10,0.00
2013-1-28,75.3,63.7,54.0,65.7,60.6,52.7,98,90,67,30.26,30.11,11,1,11,0.01
2013-1-29,77.0,70.8,66.8,71.0,68.4,65.3,96,92,81,30.12,29.84,19,2,21,0.23
2013-1-30,72.9,61.3,42.7,70.4,57.3,32.0,96,87,60,30.10,29.68,24,4,28,0.64
2013-1-31,60.4,45.3,31.9,38.6,33.3,28.8,95,67,32,30.30,30.09,13,1,15,0.00
2013-2-1,62.7,47.1,39.2,41.0,35.8,25.7,89,67,38,30.39,30.28,10,0,12,0.00
2013-2-2,66.4,49.8,34.0,50.2,38.5,24.5,95,67,40,30.34,30.16,10,0,11,0.00
2013-2-3,69.6,54.5,41.2,50.9,42.7,33.8,96,70,29,30.24,30.10,16,0,16,0.00
2013-2-4,64.1,53.6,43.6,53.1,43.6,34.9,94,70,51,30.11,29.96,5,0,5,0.11
2013-2-5,68.6,59.2,52.7,63.1,57.1,51.4,99,93,81,30.01,29.93,5,0,7,0.68
2013-2-6,72.7,68.9,52.3,62.4,60.3,51.1,97,74,65,30.12,29.99,9,1,10,0.01
2013-2-7,76.5,64.4,52.2,62.9,58.5,50.8,97,82,60,29.93,29.77,18,2,18,1.90
2013-2-8,74.1,59.1,48.4,61.5,53.9,47.3,97,84,58,30.14,29.92,12,1,13,0.00
2013-2-9,68.7,55.3,44.0,55.0,49.6,41.2,95,82,58,30.23,30.08,10,0,11,0.00
2013-2-10,70.6,65.3,54.3,69.4,62.7,52.9,96,91,82,30.09,29.94,19,3,20,0.07
2013-2-11,70.3,62.3,56.3,69.1,60.8,55.0,97,95,87,30.10,29.96,15,1,15,0.54
2013-2-12,71.1,61.7,55.0,70.2,60.7,54.0,98,96,95,30.02,29.74,19,1,21,0.68
2013-2-13,68.6,52.2,41.8,67.1,50.0,39.2,96,92,84,30.05,29.74,14,1,14,0.24
2013-2-14,56.1,41.7,38.6,45.6,39.4,37.3,95,92,65,30.15,30.02,9,0,10,0.00
2013-2-15,68.0,50.0,36.0,46.2,40.2,34.7,97,74,36,30.16,30.02,11,0,11,0.00
2013-2-16,53.5,46.2,30.8,41.3,28.9,18.3,77,53,28,30.28,30.07,23,2,23,0.00
2013-2-17,58.4,41.4,26.7,33.6,27.5,21.9,88,61,30,30.37,30.24,10,0,10,0.00
2013-2-18,64.1,53.5,39.6,55.5,44.9,33.5,97,74,51,30.27,30.00,24,2,24,0.00
2013-2-19,67.8,59.2,45.2,61.5,46.5,28.9,96,67,29,30.18,29.94,18,2,21,0.18
2013-2-20,60.7,47.0,39.2,34.0,29.1,24.9,75,52,28,30.26,30.06,11,0,12,0.00
2013-2-21,67.0,56.8,41.5,65.2,49.2,32.1,94,76,59,30.06,29.86,22,2,22,0.00
2013-2-22,68.4,67.5,67.0,66.9,65.9,65.2,95,95,94,29.89,29.83,9,1,10,1.05
2013-2-23,61.3,57.1,53.9,60.2,55.6,51.9,97,95,92,29.93,29.73,10,1,14,0.94
2013-2-24,69.5,58.7,47.2,58.8,53.9,46.1,97,85,66,29.97,29.78,10,0,11,0.43
2013-2-25,67.4,61.4,57.4,66.5,60.2,56.0,97,96,92,29.82,29.47,17,2,18,3.73
2013-2-26,64.0,53.4,47.7,62.7,45.6,39.6,96,75,53,29.90,29.50,14,1,15,0.01
2013-2-27,65.5,52.2,43.5,47.8,44.2,41.0,94,77,43,30.01,29.89,12,0,12,0.00
2013-2-28,58.4,49.2,40.1,46.6,37.3,29.1,93,66,34,30.08,29.96,15,0,15,0.00
2013-3-1,59.4,46.9,37.2,37.3,33.9,29.6,88,63,37,30.13,29.98,14,0,16,0.00
2013-3-2,46.9,38.7,30.1,30.9,27.8,24.1,86,66,51,30.20,30.08,17,2,17,0.00
2013-3-3,54.2,39.4,27.3,33.8,25.8,21.9,87,61,32,30.23,30.11,13,1,14,0.00
2013-3-4,64.7,50.6,32.9,54.5,43.5,31.0,95,78,55,30.16,29.95,16,2,16,0.00
2013-3-5,72.6,63.4,45.5,63.1,55.1,39.2,86,75,55,30.13,29.90,19,2,21,0.00
2013-3-6,60.5,48.8,38.6,39.7,32.2,28.4,86,55,33,30.26,30.13,15,1,15,0.00
2013-3-7,65.0,48.4,35.0,44.1,36.4,30.1,91,67,35,30.32,30.19,7,0,9,0.00
2013-3-8,73.5,52.9,36.9,46.3,40.5,34.8,93,68,28,30.29,30.16,10,0,10,0.00
2013-3-9,70.3,56.9,44.4,57.9,49.7,41.9,94,79,46,30.19,30.01,16,2,16,0.00
2013-3-10,72.5,65.2,60.0,64.0,60.6,57.2,92,85,73,30.03,29.90,26,3,26,0.00
2013-3-11,68.3,58.7,43.1,65.3,55.6,41.2,94,89,75,29.97,29.81,17,2,19,0.36
2013-3-12,65.2,50.2,38.7,42.6,38.6,34.9,94,67,38,30.17,29.96,13,1,14,0.00
2013-3-13,65.8,50.6,39.5,41.0,34.3,25.6,92,60,23,30.35,30.16,14,1,16,0.00
2013-3-14,65.6,51.0,38.6,40.6,31.0,24.8,83,50,25,30.42,30.26,12,1,12,0.00
2013-3-15,71.5,54.8,39.7,50.8,42.8,37.8,96,69,34,30.28,30.12,13,1,15,0.00
2013-3-16,74.8,60.6,45.4,57.3,52.3,43.5,96,77,49,30.12,29.96,18,1,20,0.00
2013-3-17,72.3,62.2,53.9,63.9,58.5,52.6,99,89,67,29.99,29.87,12,0,12,0.00
2013-3-18,79.3,69.3,61.6,70.0,65.3,59.3,96,88,70,29.90,29.75,17,1,17,0.00
2013-3-19,76.7,65.4,55.6,65.0,51.9,42.3,94,65,39,30.02,29.85,12,1,13,0.00
2013-3-20,65.2,57.6,45.5,44.3,37.9,30.2,67,48,31,30.09,29.95,12,1,14,0.01
2013-3-21,55.2,47.8,41.4,42.9,34.1,29.3,71,59,42,30.06,29.88,8,0,10,0.00
2013-3-22,66.3,58.2,48.1,58.7,51.2,43.0,89,78,65,29.90,29.82,16,1,18,0.02
2013-3-23,73.9,65.5,59.9,69.1,62.2,52.7,97,89,76,29.86,29.56,16,1,19,0.57
2013-3-24,78.8,66.8,47.4,69.3,58.0,33.7,96,75,41,29.93,29.53,16,2,20,0.00
2013-3-25,57.9,46.8,36.1,34.0,28.5,22.3,76,52,26,30.20,29.92,19,2,19,0.00
2013-3-26,55.0,43.6,31.7,29.7,27.7,25.9,81,55,35,30.36,30.20,14,1,14,0.00
2013-3-27,60.5,44.8,29.7,39.0,31.3,26.5,90,63,31,30.43,30.26,8,0,10,0.00
2013-3-28,69.3,51.4,37.0,43.5,38.0,33.5,94,66,29,30.35,30.22,12,0,13,0.00
2013-3-29,69.7,55.7,39.7,53.8,45.4,37.8,96,72,37,30.32,30.18,14,1,16,0.00
2013-3-30,73.8,62.2,49.2,58.8,54.8,47.8,97,79,47,30.20,30.02,15,1,15,0.00
2013-3-31,78.0,65.6,56.6,65.7,60.9,55.2,96,86,58,30.05,29.87,14,1,18,0.29
2013-4-1,73.4,61.9,55.0,60.9,56.7,52.6,97,85,55,30.06,29.90,9,0,10,0.00
2013-4-2,78.0,64.9,49.0,58.4,51.7,46.7,97,67,35,30.11,29.99,12,0,15,0.00
2013-4-3,64.5,58.3,53.5,60.5,55.6,51.7,97,91,85,30.05,29.66,20,1,20,1.42
2013-4-4,69.5,58.7,53.5,61.1,54.9,50.0,96,88,72,29.94,29.84,7,0,9,0.00
2013-4-5,64.8,53.3,48.2,51.0,48.0,45.4,93,83,57,30.10,29.93,17,1,17,0.00
2013-4-6,72.5,57.1,42.2,53.3,47.1,40.6,96,73,37,30.15,30.06,14,1,14,0.00
2013-4-7,74.7,61.0,47.8,61.5,54.9,46.2,96,82,57,30.12,30.01,11,0,13,0.00
2013-4-8,77.3,69.5,58.4,68.3,64.1,57.0,97,84,66,30.05,29.95,13,1,18,0.00
2013-4-9,79.0,74.2,68.7,70.5,68.5,66.0,92,83,73,30.06,30.00,10,1,17,0.00
2013-4-10,78.6,72.1,66.4,70.5,67.9,64.6,95,87,75,30.01,29.86,8,1,15,0.00
2013-4-11,79.9,71.1,57.8,74.3,68.5,56.7,96,92,82,29.86,29.57,12,2,25,1.45
2013-4-12,72.7,61.0,50.4,56.8,50.8,47.5,96,72,43,29.95,29.77,11,1,14,0.00
2013-4-13,79.2,67.3,48.3,57.8,52.4,46.1,93,63,36,30.03,29.88,10,0,10,0.00
2013-4-14,66.3,61.4,56.7,64.4,59.4,55.1,96,93,83,29.95,29.70,17,1,21,1.08
2013-4-15,78.5,69.5,63.4,72.9,67.3,62.2,97,93,80,30.02,29.80,9,0,10,0.01
2013-4-16,81.9,72.7,67.2,74.0,69.3,66.0,97,90,72,30.10,29.99,12,1,12,0.00
2013-4-17,80.3,71.4,66.7,73.7,68.2,65.5,96,90,73,30.10,29.98,11,0,15,0.00
2013-4-18,79.0,73.0,65.6,72.8,69.5,64.1,96,89,78,29.99,29.83,16,1,16,0.00
2013-4-19,74.8,55.5,43.5,72.3,53.5,42.2,95,93,79,30.16,29.78,20,1,20,0.93
2013-4-20,67.2,53.3,41.1,45.2,41.9,38.6,95,69,38,30.25,30.10,14,1,16,0.01
2013-4-21,73.0,59.9,45.2,54.5,46.9,41.2,90,65,40,30.20,30.08,9,0,10,0.00
2013-4-22,78.7,64.4,52.8,64.7,57.2,48.2,93,78,55,30.12,30.01,6,0,7,0.00
2013-4-23,75.8,66.6,59.0,65.9,62.0,57.3,96,86,69,30.10,30.01,12,0,12,0.00
2013-4-24,72.8,67.2,61.9,68.3,65.1,60.5,96,93,80,30.12,29.93,16,0,16,0.37
2013-4-25,75.3,62.8,53.9,64.0,54.7,47.7,96,77,49,30.26,30.11,12,2,16,0.00
2013-4-26,78.8,66.8,54.8,60.3,51.6,44.7,87,60,39,30.28,30.19,10,0,10,0.00
2013-4-27,79.9,67.5,59.3,67.6,62.1,57.5,95,84,60,30.20,30.04,11,0,15,0.00
2013-4-28,78.1,71.0,67.0,71.1,67.3,64.1,96,89,72,30.05,29.93,14,1,14,0.06
2013-4-29,82.3,73.5,65.5,69.2,66.2,63.2,94,79,58,29.97,29.86,8,0,10,0.12
2013-4-30,79.7,69.1,63.3,70.9,66.4,61.8,96,91,68,29.93,29.86,7,0,10,0.91
2013-5-1,75.5,68.5,61.9,71.4,66.7,60.5,95,94,86,29.92,29.82,15,0,19,1.12
2013-5-2,72.5,65.9,62.1,67.5,63.9,60.7,95,93,82,29.96,29.84,10,0,10,1.24
2013-5-3,74.1,64.3,48.3,67.2,61.2,46.6,95,90,77,29.94,29.78,12,0,14,0.29
2013-5-4,67.3,54.2,43.6,47.2,43.2,38.6,92,70,35,29.96,29.87,16,1,19,0.00
2013-5-5,69.4,58.3,49.0,56.7,47.7,41.9,94,70,47,29.99,29.83,16,0,16,0.00
2013-5-6,71.8,59.0,45.8,55.3,50.4,43.5,94,75,50,30.00,29.89,14,0,16,0.00
2013-5-7,76.4,64.4,51.5,61.2,56.7,49.8,94,78,54,30.02,29.94,7,0,7,0.00
2013-5-8,81.8,68.7,57.3,65.6,60.5,55.7,95,78,48,30.09,29.99,12,0,12,0.00
2013-5-9,80.7,69.8,59.5,67.9,62.3,57.7,95,79,51,30.12,30.02,10,1,13,0.00
2013-5-10,74.0,68.6,64.3,66.5,64.5,62.1,95,87,72,30.02,29.87,14,1,14,0.49
2013-5-11,75.3,67.7,62.0,68.8,65.0,60.6,95,91,79,30.04,29.92,6,0,6,0.34
2013-5-12,78.0,68.1,60.8,64.0,59.9,54.6,95,78,51,30.11,29.98,11,1,12,0.00
2013-5-13,77.0,64.7,52.4,55.3,48.8,41.9,88,60,30,30.26,30.10,13,1,13,0.00
2013-5-14,83.6,61.3,52.7,61.1,55.3,50.7,94,83,39,30.26,30.15,9,0,9,0.00
2013-5-15,83.4,68.2,57.0,64.3,58.5,53.4,95,75,42,30.20,30.02,10,0,11,0.00
2013-5-16,80.9,72.1,65.0,70.2,66.4,61.0,94,83,64,30.04,29.95,13,1,14,0.00
2013-5-17,82.0,73.4,66.8,72.7,69.2,65.0,95,87,67,30.04,29.96,13,1,15,0.00
2013-5-18,82.1,74.9,71.7,73.7,71.5,69.8,95,89,73,30.07,29.98,12,0,13,0.00
2013-5-19,81.8,75.3,67.9,73.8,71.1,66.4,95,87,76,30.02,29.96,10,0,11,0.00
2013-5-20,87.3,74.8,70.4,73.6,70.4,68.2,95,87,55,30.02,29.95,9,0,11,0.00
2013-5-21,85.1,75.8,67.2,73.8,69.9,65.7,96,83,62,29.97,29.86,12,0,13,0.00
2013-5-22,81.6,74.5,67.1,74.4,68.8,65.7,96,83,61,30.03,29.87,6,0,9,0.03
2013-5-23,89.3,75.1,65.5,73.3,67.8,64.0,96,81,45,30.03,29.92,9,0,10,0.00
2013-5-24,87.5,77.5,68.1,70.9,66.2,57.6,95,71,48,30.14,30.00,13,1,13,0.00
2013-5-25,68.2,64.3,61.4,57.2,53.7,51.0,71,68,66,30.19,30.11,6,0,7,0.00
2013-6-13,81.4,78.8,77.2,72.7,71.9,71.2,86,80,74,29.89,29.84,1,0,1,1.28
2013-6-14,91.9,82.2,75.4,79.1,72.8,67.8,96,75,49,29.92,29.82,14,1,14,0.02
2013-6-15,92.8,82.0,70.9,76.6,72.0,65.8,94,73,52,29.99,29.90,7,0,8,0.00
2013-6-16,92.1,81.6,75.8,80.0,77.0,74.3,96,87,60,30.02,29.95,14,0,17,0.01
2013-6-17,89.6,82.2,75.2,78.0,75.9,73.3,96,82,60,29.99,29.91,12,0,13,0.00
2013-6-18,89.6,81.7,72.0,77.4,74.7,70.2,96,80,59,29.99,29.86,13,1,18,0.10
2013-6-19,86.8,77.9,70.2,76.7,72.9,69.0,97,85,68,30.01,29.91,10,0,10,0.00
2013-6-20,89.5,78.1,72.1,77.1,72.7,69.4,96,84,61,30.07,29.98,13,0,16,0.00
2013-6-21,92.5,78.3,71.2,78.2,73.1,69.4,96,85,61,30.10,30.02,10,0,11,0.31
2013-6-22,90.3,79.6,71.1,77.6,73.3,69.8,96,82,57,30.09,29.98,6,0,6,0.00
2013-6-23,90.3,77.3,73.4,79.9,74.5,71.3,96,91,65,30.07,29.99,10,0,11,0.28
2013-6-24,86.7,78.6,72.8,78.3,74.7,71.6,97,88,67,30.14,30.05,5,0,6,0.00
2013-6-25,89.2,80.9,71.9,79.0,75.1,70.5,96,83,65,30.10,30.00,9,0,11,0.00
2013-6-26,89.0,80.8,74.4,79.5,76.0,72.9,96,86,67,30.06,29.94,11,0,11,0.00
2013-6-27,92.6,83.7,75.0,80.4,77.1,73.2,96,82,57,30.00,29.88,6,0,7,0.00
2013-6-28,93.2,84.9,77.5,81.7,78.6,76.1,96,82,61,29.91,29.72,11,0,11,0.00
2013-6-29,90.5,81.5,73.0,79.3,75.2,70.2,96,82,60,29.78,29.64,17,0,20,0.12
2013-6-30,90.1,80.4,71.5,76.8,70.1,62.3,97,74,43,29.75,29.67,10,0,12,0.00
2013-7-1,86.5,75.7,69.9,71.3,68.8,67.3,92,80,58,29.83,29.74,7,0,7,0.00
2013-7-7,80.7,78.7,74.8,77.5,75.5,73.9,97,90,87,30.10,29.99,2,1,5,0.00
2013-7-8,83.5,79.6,75.5,78.0,75.3,73.5,97,87,79,30.15,30.06,2,1,12,0.00
2013-7-9,90.6,82.6,76.1,78.9,75.2,72.5,98,79,59,30.17,30.05,6,0,10,0.00
2013-7-10,90.0,81.7,77.7,79.3,76.2,74.9,95,84,66,30.08,29.95,5,0,9,0.16
2013-7-11,79.6,76.9,75.5,77.4,74.6,73.3,97,92,89,29.99,29.85,5,0,12,0.00
2013-7-12,90.6,80.4,73.5,78.8,75.2,72.3,96,85,66,29.91,29.82,3,0,11,0.07
2013-7-13,89.0,81.8,74.5,78.7,76.0,73.6,97,83,70,29.90,29.84,3,0,4,0.00
2013-7-14,84.3,83.8,83.8,75.7,75.4,75.4,76,76,75,30.00,29.94,2,0,2,0.00
2013-7-15,83.8,79.5,75.3,76.2,75.8,67.0,97,89,76,30.10,29.99,2,0,4,0.00
2013-7-16,86.9,81.3,75.1,78.1,75.4,72.8,95,83,69,30.16,30.06,12,0,12,0.00
2013-7-17,92.3,85.6,77.2,78.2,75.5,73.4,90,72,58,30.19,30.08,7,0,10,0.00
2013-7-18,90.5,85.6,77.0,77.4,75.4,68.5,93,72,60,30.12,29.99,8,0,9,0.00
2013-7-19,88.8,82.5,73.6,78.1,75.2,72.4,97,79,64,30.05,29.93,7,0,8,0.00
2013-7-20,85.5,81.5,75.2,78.9,76.4,74.2,97,85,77,29.99,29.89,4,0,4,0.00
2013-7-21,86.0,81.5,75.6,77.3,75.9,73.4,96,83,70,30.03,29.96,13,2,13,0.02
2013-7-22,85.2,80.2,76.1,79.3,74.6,73.7,93,83,75,30.06,29.98,15,5,15,0.00
2013-7-23,90.3,83.8,77.0,80.5,76.7,70.6,97,80,65,30.03,29.88,9,2,11,0.00
2013-7-24,89.7,85.5,78.0,80.2,77.7,76.1,94,78,66,29.94,29.85,6,0,7,0.00
2013-7-25,89.0,85.8,73.3,78.3,76.4,65.2,97,74,65,29.99,29.84,9,0,9,0.00
2013-7-26,91.5,86.2,72.5,77.9,74.3,67.8,96,68,50,30.03,29.93,6,0,7,0.00
2013-7-27,86.4,82.5,77.5,77.1,75.8,74.0,89,81,67,29.97,29.85,4,2,5,0.00
2013-7-28,88.8,82.0,74.4,78.9,77.2,70.2,97,86,70,29.98,29.83,7,2,7,0.00
2013-7-29,90.6,83.2,76.8,80.6,78.0,74.6,97,85,65,30.09,29.95,7,0,10,0.00
2013-7-30,91.8,85.8,80.4,80.0,78.5,77.1,93,79,65,30.12,30.03,10,1,11,0.00
2013-7-31,91.3,84.3,78.5,80.5,77.9,72.8,94,81,68,30.08,29.94,7,1,7,0.04
2013-8-1,92.9,82.8,78.7,81.1,76.8,74.5,96,83,58,29.98,29.88,7,0,12,0.03
2013-8-2,92.6,84.9,75.7,80.5,76.9,72.2,97,78,55,30.00,29.89,7,0,7,0.00
2013-8-3,93.8,86.7,0.0,80.1,77.0,0.0,97,73,51,30.04,29.95,6,0,9,0.00
2013-8-4,94.7,67.7,0.0,78.6,59.5,0.0,95,54,56,30.05,29.93,10,0,11,0.00
2013-8-5,94.3,86.1,79.4,80.4,77.9,76.3,92,77,60,30.01,29.92,7,0,9,0.09
2013-8-6,93.5,86.1,75.9,81.8,78.7,71.4,97,79,60,30.00,29.87,10,0,13,0.00
2013-8-7,94.0,87.0,76.5,82.0,78.5,68.8,97,76,62,29.96,29.88,7,0,7,0.01
2013-8-8,93.3,86.9,79.3,82.0,78.2,76.2,96,76,62,29.96,29.88,7,1,9,0.00
2013-8-9,85.4,85.4,85.4,78.5,78.5,78.5,80,80,80,29.93,29.92,3,3,3,0.00
2013-8-15,84.2,82.0,78.7,77.5,75.2,74.4,96,80,74,29.96,29.88,1,0,4,1.34
2013-8-16,81.9,81.9,81.9,75.1,75.1,75.1,80,80,80,29.93,29.90,0,0,0,0.00
2013-8-18,72.9,72.9,72.9,72.0,72.0,72.0,97,97,97,30.03,29.97,0,0,0,0.07
2013-8-25,84.3,78.6,74.7,76.1,74.8,73.2,96,88,74,30.17,30.10,6,0,6,0.02
2013-8-26,87.0,78.6,71.1,73.7,69.7,65.5,97,76,52,30.19,30.07,6,0,7,0.05
2013-8-27,85.9,76.8,66.8,71.4,67.2,64.1,92,74,51,30.10,30.00,8,0,9,0.00
2013-8-28,88.6,77.0,66.4,73.6,69.0,64.9,95,78,51,30.06,29.97,10,0,10,0.00
2013-8-29,91.1,79.3,69.2,75.0,70.6,67.9,97,77,51,30.05,29.94,5,0,5,0.00
2013-8-30,91.3,80.6,70.8,76.3,72.7,69.0,95,79,56,30.01,29.88,7,0,7,0.00
2013-8-31,91.0,80.3,72.1,79.6,74.5,69.9,96,83,61,29.95,29.82,6,0,9,0.07
2013-9-1,89.5,77.4,73.6,78.9,74.8,72.3,97,92,67,29.92,29.85,4,0,6,0.01
2013-9-21,77.4,75.2,70.7,76.8,74.2,69.5,98,97,95,29.79,29.70,10,0,10,0.34
2013-9-22,80.3,72.5,68.2,71.0,68.0,64.2,97,86,71,29.79,29.70,11,1,12,0.01
2013-9-23,87.3,77.1,67.3,77.7,71.6,63.7,95,84,70,29.86,29.77,7,0,7,0.01
2013-9-24,84.0,76.3,70.4,78.7,74.4,69.5,98,94,81,29.87,29.74,14,0,14,0.38
2013-9-25,85.6,76.1,70.6,74.5,71.7,69.0,98,87,59,29.81,29.72,9,0,11,0.01
2013-9-26,88.7,77.5,70.4,73.1,70.0,65.7,97,80,48,29.92,29.78,6,0,6,0.00
2013-9-27,83.6,75.2,68.0,69.8,67.4,64.5,92,78,57,30.02,29.91,7,0,10,0.00
2013-9-28,84.3,73.0,63.5,69.2,64.6,60.5,92,77,53,30.06,29.98,7,0,11,0.00
2013-9-29,82.3,72.9,64.3,68.5,65.0,61.0,91,77,60,30.03,29.93,6,0,9,0.00
2013-10-3,76.9,75.0,72.7,75.3,73.6,66.6,96,95,75,30.02,29.95,9,0,11,0.40
2013-10-4,86.0,77.6,72.0,78.4,74.5,71.1,98,91,72,30.03,29.96,12,0,12,0.00
2013-10-5,85.5,78.4,74.2,78.3,75.0,72.7,98,90,70,30.01,29.90,12,0,13,0.02
2013-10-6,76.3,73.0,66.6,75.0,71.7,63.1,98,96,87,29.91,29.76,11,0,12,2.97
2013-10-7,74.8,67.0,60.9,63.6,56.5,52.5,90,70,46,29.99,29.84,17,2,18,0.00
2013-10-8,76.9,64.9,53.1,61.9,56.6,51.2,94,76,51,30.00,29.94,9,0,11,0.00
2013-10-9,65.3,64.6,64.0,60.5,59.5,59.1,88,84,81,29.99,29.97,3,0,3,0.00
2013-10-11,71.4,71.4,71.4,68.3,68.3,68.3,90,90,90,29.98,29.97,0,0,0,0.00
2013-10-18,68.4,66.4,64.7,61.2,60.4,59.1,84,81,77,29.97,29.91,5,0,6,0.03
2013-10-19,66.7,63.3,58.5,63.9,60.2,56.8,97,90,80,30.00,29.88,7,0,9,0.01
2013-10-20,73.6,62.1,53.2,60.5,56.9,52.0,96,84,59,30.04,29.95,9,0,10,0.00
2013-10-21,71.9,64.4,58.4,62.7,59.0,55.1,91,83,67,30.04,29.94,7,0,7,0.00
2013-10-22,78.4,68.1,61.8,64.9,60.1,52.5,94,77,42,29.96,29.85,8,0,12,0.00
2013-10-23,73.2,61.7,51.7,57.2,49.6,42.6,93,68,35,30.10,29.94,12,0,17,0.00
2013-10-24,77.5,60.0,46.6,56.7,50.1,44.0,93,73,41,30.21,30.09,6,0,7,0.00
2013-10-25,65.8,56.7,49.1,53.4,45.2,38.2,93,68,41,30.36,30.18,16,1,16,0.00
2013-10-26,73.2,55.6,43.0,52.3,42.6,37.7,86,64,35,30.29,30.14,6,0,6,0.00
2013-10-27,74.1,60.8,46.6,61.0,52.8,43.6,92,77,48,30.15,30.06,7,0,7,0.00
2013-10-28,79.0,67.7,56.8,66.4,61.3,55.1,96,81,61,30.18,30.07,8,0,10,0.00
2013-10-29,78.6,67.2,58.2,66.4,62.1,56.8,97,85,62,30.24,30.16,10,0,10,0.00
2013-10-30,78.3,67.9,60.5,70.4,64.8,59.4,99,90,73,30.19,30.07,9,0,9,0.00
2013-10-31,79.0,74.3,68.8,72.7,70.0,67.3,96,87,75,30.05,29.81,18,1,21,0.05
2013-11-1,78.0,69.1,58.1,72.5,63.8,53.0,96,84,58,29.89,29.75,11,0,11,0.02
2013-11-2,74.0,61.4,50.2,56.4,50.7,44.3,96,70,46,30.11,29.87,14,0,15,0.00
2013-11-3,67.8,54.7,45.3,48.6,44.9,41.7,90,71,44,30.21,30.10,11,0,13,0.00
2013-11-4,73.7,60.7,47.7,57.8,51.6,43.6,87,73,55,30.25,30.15,11,0,11,0.00
2013-11-5,75.1,65.1,57.7,62.4,56.5,49.9,81,74,64,30.25,30.12,7,0,9,0.00
2013-11-6,77.0,67.6,59.0,69.1,62.9,53.5,95,85,75,30.14,30.04,7,0,7,0.00
2013-11-7,69.6,59.6,49.7,68.4,53.8,37.7,96,82,63,30.24,29.99,16,2,18,0.22
2013-11-8,64.8,52.4,43.0,41.2,37.8,34.5,84,59,36,30.30,30.16,17,2,18,0.00
2013-11-9,74.8,59.5,44.2,60.4,51.5,39.7,87,75,60,30.24,30.14,9,0,9,0.00
2013-11-10,75.5,62.6,55.0,58.5,54.4,48.6,87,76,52,30.24,30.14,11,0,11,0.00
2013-11-11,77.2,61.7,51.8,55.7,50.5,45.8,90,69,41,30.22,30.11,6,0,6,0.00
2013-11-12,57.3,49.2,40.6,49.5,41.2,25.1,91,75,52,30.41,30.14,16,3,21,0.00
2013-11-13,53.2,42.2,32.6,29.3,24.6,20.7,72,51,32,30.49,30.38,17,2,17,0.00
2013-11-14,36.7,36.2,35.7,28.4,27.6,26.7,74,71,68,30.39,30.36,1,0,2,0.00
2013-11-16,70.3,67.7,63.3,68.0,66.1,62.7,98,95,92,30.07,29.97,9,0,9,0.59
2013-11-17,78.5,72.3,67.7,72.9,70.6,66.5,98,95,81,29.98,29.89,10,0,14,0.06
2013-11-18,73.6,66.7,56.7,72.7,60.6,41.7,98,82,52,30.05,29.92,13,1,20,0.21
2013-11-19,63.3,54.0,45.6,42.0,39.9,36.0,76,60,42,30.13,30.00,13,1,15,0.00
2013-11-20,72.4,56.1,42.8,59.4,48.9,35.5,95,77,58,30.13,30.02,4,0,10,0.00
2013-11-21,69.0,61.2,54.7,63.0,58.1,52.5,95,90,80,30.22,30.12,6,0,7,0.00
2013-11-22,76.5,68.1,61.4,70.8,65.4,60.0,97,91,81,30.19,30.11,8,0,8,0.00
2013-11-23,66.3,59.0,48.3,65.0,56.1,40.4,96,90,74,30.26,30.12,17,2,20,0.00
2013-11-24,52.5,45.4,39.0,40.4,30.1,26.0,74,56,38,30.36,30.25,18,2,21,0.00
2013-11-25,58.9,49.3,39.1,58.0,42.8,27.8,97,79,62,30.28,29.87,10,0,10,0.17
2013-11-26,66.6,51.3,42.9,66.0,49.8,41.6,98,95,89,29.91,29.68,17,1,18,1.42
2013-11-27,47.7,39.8,30.1,41.6,31.9,26.4,96,75,48,30.37,29.90,21,2,21,0.05
2013-11-28,48.7,35.9,25.8,32.6,26.8,22.6,89,72,39,30.47,30.34,7,0,7,0.00
2013-11-29,59.2,42.3,28.8,34.6,29.1,24.9,86,63,29,30.52,30.39,10,0,11,0.00
2013-11-30,68.3,48.5,34.4,49.7,39.7,29.4,93,73,46,30.43,30.24,5,0,5,0.00
2013-12-1,69.4,53.4,39.7,52.7,46.5,38.1,99,80,46,30.27,29.99,9,0,9,0.00
2013-12-2,73.5,59.2,47.4,59.9,52.8,46.0,97,81,52,29.99,29.77,7,0,10,0.00
2013-12-3,73.4,66.5,57.5,66.8,63.8,56.0,97,91,78,29.83,29.74,15,1,16,0.04
2013-12-4,74.4,70.8,66.6,71.6,69.3,65.5,98,95,89,29.95,29.82,11,0,11,0.03
2013-12-5,77.2,74.1,72.0,73.8,72.5,71.1,97,95,88,30.02,29.93,17,1,17,0.00
2013-12-6,77.5,70.6,51.0,73.5,68.7,49.8,97,94,80,30.14,29.94,16,1,17,0.01
2013-12-7,50.9,42.5,40.8,49.8,41.2,39.4,97,95,93,30.28,30.13,21,2,21,0.00
2013-12-8,69.3,55.9,42.4,68.4,55.1,41.6,98,97,93,30.20,30.01,6,0,9,0.00
2013-12-9,70.8,63.4,57.4,68.8,60.6,55.6,97,91,75,30.10,30.00,10,0,10,0.01
2013-12-10,59.3,45.3,38.0,57.6,41.8,34.5,96,88,72,30.34,30.00,18,2,18,0.00
2013-12-11,63.9,48.5,36.0,44.0,37.9,32.5,88,69,43,30.38,30.27,9,0,10,0.00
2013-12-12,50.7,44.9,37.1,37.8,30.9,26.8,66,58,42,30.40,30.35,9,0,16,0.00
2013-12-13,59.7,47.5,33.5,48.9,38.6,25.3,83,71,61,30.35,29.99,7,0,7,0.00
2013-12-14,73.9,62.7,51.0,67.5,59.5,47.0,97,89,78,30.00,29.79,13,1,13,0.01
2013-12-15,50.9,42.6,33.0,48.5,37.0,31.2,93,81,67,30.29,29.98,18,2,19,0.00
2013-12-16,61.8,42.7,30.7,42.4,35.4,29.2,100,78,39,30.33,30.22,5,0,7,0.00
2013-12-17,66.0,47.2,34.3,44.5,37.5,32.0,94,73,36,30.32,30.20,6,0,7,0.00
2013-12-18,67.0,49.7,38.3,42.4,38.9,35.5,92,70,35,30.35,30.23,8,0,10,0.00
2013-12-19,69.2,55.3,39.7,59.0,50.5,37.8,97,85,67,30.23,30.05,15,0,15,0.00
2013-12-20,73.8,66.3,57.2,68.4,64.0,56.1,97,92,81,30.10,29.98,12,1,14,0.00
2013-12-21,75.8,72.8,68.7,72.8,71.0,67.6,97,94,89,29.98,29.82,21,2,21,0.01
2013-12-22,73.2,60.0,53.1,72.0,59.0,52.2,98,97,88,30.10,29.81,18,1,19,2.65
2013-12-23,54.0,48.3,37.1,54.0,45.8,32.3,100,91,80,30.39,30.06,15,2,18,0.01
2013-12-24,51.5,38.9,30.5,33.8,30.0,26.4,95,72,47,30.48,30.35,18,1,18,0.00
2013-12-25,47.2,37.6,27.8,34.7,28.7,24.8,89,71,51,30.39,30.28,7,0,7,0.00
2013-12-26,53.8,44.3,36.6,39.1,34.1,30.1,79,68,51,30.35,30.25,12,0,12,0.00
2013-12-27,59.7,50.5,42.4,39.2,35.7,33.8,76,58,40,30.37,30.24,12,1,15,0.00
2013-12-28,52.4,46.7,45.0,46.2,44.6,38.8,97,93,61,30.24,29.91,12,1,12,2.68
2013-12-29,56.4,48.2,40.6,50.0,45.9,39.5,97,92,75,30.11,29.89,9,0,9,0.00
2013-12-30,57.9,48.5,39.9,51.1,45.9,38.8,98,91,72,30.29,30.08,4,0,4,0.00
2013-12-31,49.4,44.2,41.9,47.4,41.3,38.6,95,90,83,30.40,30.26,12,1,13,0.03
2014-1-1,61.6,50.8,42.2,57.6,49.2,40.9,97,94,86,30.32,30.03,5,0,6,0.17
2014-1-2,58.2,50.5,34.2,56.8,47.1,27.2,100,89,66,30.29,29.89,16,1,17,0.37